createdAt,value
2022-08-11T00:00:20.274Z,2.70
2022-08-11T00:02:48.752Z,2.55
2022-08-11T00:05:15.439Z,2.60
2022-08-11T00:07:46.811Z,2.45
2022-08-11T00:10:14.372Z,2.45
2022-08-11T00:12:39.861Z,2.58
2022-08-11T00:15:04.308Z,2.53
2022-08-11T00:17:33.344Z,2.50
2022-08-11T00:20:11.940Z,2.60
2022-08-11T00:22:44.670Z,2.28
2022-08-11T00:25:14.253Z,2.83
2022-08-11T00:27:42.243Z,2.60
2022-08-11T00:30:08.951Z,2.70
2022-08-11T00:32:33.706Z,2.88
2022-08-11T00:35:50.908Z,2.50
2022-08-11T00:37:50.779Z,2.80
2022-08-11T00:40:24.840Z,2.92
2022-08-11T00:43:03.284Z,2.75
2022-08-11T00:45:33.995Z,2.95
2022-08-11T00:48:08.852Z,2.42
2022-08-11T00:50:48.574Z,2.90
2022-08-11T00:53:40.605Z,2.60
2022-08-11T00:56:44.565Z,2.60
2022-08-11T00:59:56.564Z,2.60
2022-08-11T01:02:30.787Z,2.75
2022-08-11T01:05:38.705Z,2.47
2022-08-11T01:09:17.899Z,3.20
2022-08-11T01:12:23.124Z,3.00
2022-08-11T01:15:31.157Z,2.90
2022-08-11T01:19:03.053Z,2.90
2022-08-11T01:22:20.360Z,3.00
2022-08-11T01:25:30.982Z,2.70
2022-08-11T01:28:59.177Z,3.28
2022-08-11T01:32:17.096Z,2.80
2022-08-11T01:35:43.549Z,2.80
2022-08-11T01:39:18.367Z,2.83
2022-08-11T01:42:32.022Z,2.88
2022-08-11T01:45:17.156Z,3.30
2022-08-11T01:47:54.527Z,3.22
2022-08-11T01:50:38.540Z,2.58
2022-08-11T01:53:17.620Z,2.90
2022-08-11T01:56:03.623Z,2.95
2022-08-11T01:58:43.697Z,2.85
2022-08-11T02:01:27.458Z,3.10
2022-08-11T02:04:00.244Z,3.35
2022-08-11T02:06:57.484Z,3.15
2022-08-11T02:09:49.565Z,3.15
2022-08-11T02:12:37.816Z,3.13
2022-08-11T02:15:15.788Z,3.05
2022-08-11T02:17:53.773Z,2.90
2022-08-11T02:20:49.511Z,3.13
2022-08-11T02:24:06.852Z,3.50
2022-08-11T02:26:37.843Z,3.30
2022-08-11T02:29:14.121Z,2.80
2022-08-11T02:32:24.200Z,3.00
2022-08-11T02:35:03.189Z,3.08
2022-08-11T02:37:38.828Z,3.20
2022-08-11T02:40:21.080Z,3.53
2022-08-11T02:43:07.196Z,3.25
2022-08-11T02:45:46.304Z,3.17
2022-08-11T02:48:46.608Z,2.95
2022-08-11T02:51:22.096Z,3.50
2022-08-11T02:53:58.970Z,3.40
2022-08-11T02:56:44.609Z,3.00
2022-08-11T02:59:38.274Z,3.30
2022-08-11T03:02:14.280Z,3.70
2022-08-11T03:04:49.971Z,3.35
2022-08-11T03:07:29.058Z,3.45
2022-08-11T03:10:05.323Z,3.17
2022-08-11T03:12:59.383Z,3.42
2022-08-11T03:15:48.580Z,3.20
2022-08-11T03:18:26.882Z,3.13
2022-08-11T03:21:00.499Z,3.33
2022-08-11T03:23:35.497Z,3.40
2022-08-11T03:26:07.724Z,3.30
2022-08-11T03:28:37.644Z,3.33
2022-08-11T03:31:16.861Z,3.17
2022-08-11T03:34:07.247Z,3.92
2022-08-11T03:37:16.130Z,3.85
2022-08-11T03:39:57.305Z,5.63
2022-08-11T03:42:34.223Z,4.53
2022-08-11T03:45:09.003Z,4.65
2022-08-11T03:48:07.111Z,4.50
2022-08-11T03:51:09.404Z,6.45
2022-08-11T03:54:10.525Z,4.85
2022-08-11T03:57:36.670Z,7.75
2022-08-11T04:00:22.135Z,9.45
2022-08-11T04:03:39.095Z,8.68
2022-08-11T04:07:05.623Z,6.22
2022-08-11T04:10:40.574Z,5.93
2022-08-11T04:14:18.176Z,4.18
2022-08-11T04:16:47.491Z,3.70
2022-08-11T04:20:16.204Z,4.45
2022-08-11T04:23:09.068Z,4.13
2022-08-11T04:26:19.042Z,4.00
2022-08-11T04:28:57.577Z,3.95
2022-08-11T04:31:51.931Z,4.20
2022-08-11T04:34:57.140Z,4.22
2022-08-11T04:38:12.257Z,3.88
2022-08-11T04:41:26.879Z,4.03
2022-08-11T04:44:35.655Z,3.83
2022-08-11T04:48:04.317Z,4.30
2022-08-11T04:51:16.971Z,4.13
2022-08-11T04:54:14.932Z,4.03
2022-08-11T04:56:59.282Z,3.85
2022-08-11T05:00:02.001Z,4.15
2022-08-11T05:03:19.403Z,4.47
2022-08-11T05:06:30.027Z,4.20
2022-08-11T05:09:35.268Z,4.50
2022-08-11T05:12:30.005Z,4.22
2022-08-11T05:15:12.478Z,4.75
2022-08-11T05:17:59.385Z,5.07
2022-08-11T05:20:44.389Z,4.95
2022-08-11T05:23:29.920Z,4.50
2022-08-11T05:26:47.640Z,4.68
2022-08-11T05:29:21.446Z,4.53
2022-08-11T05:32:09.171Z,4.30
2022-08-11T05:34:54.564Z,4.63
2022-08-11T05:37:27.101Z,4.63
2022-08-11T05:40:16.851Z,4.47
2022-08-11T05:43:07.848Z,4.30
2022-08-11T05:45:58.284Z,4.43
2022-08-11T05:48:53.015Z,4.57
2022-08-11T05:51:35.800Z,4.93
2022-08-11T05:54:28.606Z,4.93
2022-08-11T05:56:57.917Z,4.68
2022-08-11T05:59:25.133Z,4.53
2022-08-11T06:01:51.077Z,4.68
2022-08-11T06:04:20.695Z,5.05
2022-08-11T06:06:56.260Z,5.95
2022-08-11T06:09:26.865Z,4.82
2022-08-11T06:11:51.363Z,5.25
2022-08-11T06:14:17.080Z,4.97
2022-08-11T06:16:43.662Z,5.05
2022-08-11T06:19:08.248Z,4.72
2022-08-11T06:21:36.271Z,5.00
2022-08-11T06:24:01.284Z,5.15
2022-08-11T06:26:25.603Z,5.30
2022-08-11T06:28:50.531Z,5.10
2022-08-11T06:31:20.728Z,5.93
2022-08-11T06:34:01.256Z,5.47
2022-08-11T06:36:36.024Z,5.20
2022-08-11T06:39:13.710Z,5.32
2022-08-11T06:41:46.008Z,5.13
2022-08-11T06:44:25.596Z,5.00
2022-08-11T06:46:56.083Z,4.90
2022-08-11T06:49:40.288Z,5.93
2022-08-11T06:52:07.772Z,5.03
2022-08-11T06:55:04.346Z,4.97
2022-08-11T06:57:45.796Z,5.20
2022-08-11T07:00:33.155Z,5.03
2022-08-11T07:03:03.508Z,4.80
2022-08-11T07:05:43.960Z,4.45
2022-08-11T07:09:20.642Z,5.03
2022-08-11T07:12:43.494Z,4.88
2022-08-11T07:16:13.256Z,4.60
2022-08-11T07:18:40.733Z,4.47
2022-08-11T07:22:01.445Z,4.53
2022-08-11T07:24:59.836Z,4.95
2022-08-11T07:27:49.049Z,4.20
2022-08-11T07:30:14.101Z,4.90
2022-08-11T07:32:47.897Z,4.45
2022-08-11T07:35:20.096Z,4.70
2022-08-11T07:37:50.999Z,4.05
2022-08-11T07:40:26.969Z,5.07
2022-08-11T07:42:51.836Z,4.57
2022-08-11T07:45:33.108Z,4.20
2022-08-11T07:48:14.995Z,5.07
2022-08-11T07:51:02.764Z,4.63
2022-08-11T07:53:28.031Z,4.53
2022-08-11T07:55:53.509Z,4.18
2022-08-11T07:58:44.064Z,4.00
2022-08-11T08:01:28.032Z,3.78
2022-08-11T08:04:10.523Z,4.50
2022-08-11T08:06:55.052Z,4.15
2022-08-11T08:09:39.218Z,4.70
2022-08-11T08:12:23.471Z,4.45
2022-08-11T08:15:04.593Z,4.70
2022-08-11T08:17:46.644Z,4.10
2022-08-11T08:20:34.609Z,4.40
2022-08-11T08:23:02.809Z,4.00
2022-08-11T08:25:28.935Z,4.72
2022-08-11T08:27:54.004Z,4.07
2022-08-11T08:30:35.675Z,4.22
2022-08-11T08:33:01.180Z,4.03
2022-08-11T08:35:29.354Z,4.40
2022-08-11T08:37:56.315Z,4.28
2022-08-11T08:40:21.777Z,3.72
2022-08-11T08:42:53.721Z,3.85
2022-08-11T08:45:18.637Z,4.10
2022-08-11T08:47:52.577Z,3.88
2022-08-11T08:50:27.498Z,3.45
2022-08-11T08:52:57.683Z,4.05
2022-08-11T08:55:23.644Z,3.80
2022-08-11T08:57:50.736Z,3.70
2022-08-11T09:00:22.831Z,3.90
2022-08-11T09:02:47.841Z,4.30
2022-08-11T09:05:13.020Z,3.78
2022-08-11T09:07:37.964Z,3.78
2022-08-11T09:10:04.487Z,3.58
2022-08-11T09:12:36.405Z,3.47
2022-08-11T09:15:06.000Z,4.50
2022-08-11T09:17:32.752Z,4.47
2022-08-11T09:20:01.572Z,4.30
2022-08-11T09:22:43.540Z,3.70
2022-08-11T09:25:26.613Z,3.42
2022-08-11T09:27:52.597Z,3.33
2022-08-11T09:30:16.319Z,3.40
2022-08-11T09:32:42.139Z,3.60
2022-08-11T09:35:07.454Z,4.00
2022-08-11T09:37:54.161Z,3.72
2022-08-11T09:40:31.271Z,3.33
2022-08-11T09:43:14.724Z,3.47
2022-08-11T09:45:40.684Z,3.10
2022-08-11T09:48:07.235Z,3.42
2022-08-11T09:50:32.135Z,3.20
2022-08-11T09:53:36.217Z,3.30
2022-08-11T09:55:41.916Z,3.10
2022-08-11T09:58:41.829Z,3.10
2022-08-11T10:01:03.187Z,3.08
2022-08-11T10:03:28.579Z,2.65
2022-08-11T10:06:15.327Z,3.10
2022-08-11T10:08:43.368Z,2.97
2022-08-11T10:11:11.224Z,3.03
2022-08-11T10:14:31.871Z,2.95
2022-08-11T10:16:43.467Z,2.65
2022-08-11T10:19:08.493Z,2.70
2022-08-11T10:21:39.488Z,3.17
2022-08-11T10:24:22.282Z,2.88
2022-08-11T10:27:00.333Z,2.83
2022-08-11T10:29:49.583Z,2.67
2022-08-11T10:32:33.207Z,2.83
2022-08-11T10:35:09.231Z,2.70
2022-08-11T10:38:08.848Z,2.85
2022-08-11T10:40:23.721Z,2.65
2022-08-11T10:43:07.171Z,2.42
2022-08-11T10:45:52.756Z,2.60
2022-08-11T10:48:18.351Z,2.50
2022-08-11T10:51:04.349Z,2.75
2022-08-11T10:53:45.839Z,2.42
2022-08-11T10:56:27.902Z,2.40
2022-08-11T10:58:53.669Z,2.53
2022-08-11T11:01:26.283Z,2.55
2022-08-11T11:03:53.855Z,2.60
2022-08-11T11:06:28.326Z,2.40
2022-08-11T11:09:04.786Z,2.78
2022-08-11T11:11:46.502Z,2.70
2022-08-11T11:14:28.410Z,2.70
2022-08-11T11:17:11.408Z,2.80
2022-08-11T11:19:40.360Z,2.60
2022-08-11T11:22:24.285Z,2.40
2022-08-11T11:25:04.796Z,2.45
2022-08-11T11:27:36.967Z,2.53
2022-08-11T11:30:12.296Z,2.60
2022-08-11T11:32:54.753Z,2.15
2022-08-11T11:35:36.673Z,2.70
2022-08-11T11:38:04.855Z,2.30
2022-08-11T11:40:31.898Z,2.40
2022-08-11T11:42:59.164Z,2.40
2022-08-11T11:45:26.337Z,2.67
2022-08-11T11:47:54.352Z,2.40
2022-08-11T11:50:19.411Z,2.47
2022-08-11T11:52:44.896Z,2.60
2022-08-11T11:55:10.225Z,2.55
2022-08-11T11:57:58.588Z,2.65
2022-08-11T12:00:43.453Z,2.33
2022-08-11T12:03:12.167Z,2.40
2022-08-11T12:05:37.903Z,2.85
2022-08-11T12:08:15.404Z,2.83
2022-08-11T12:10:40.110Z,2.50
2022-08-11T12:13:36.320Z,2.70
2022-08-11T12:16:33.573Z,2.30
2022-08-11T12:18:53.501Z,2.50
2022-08-11T12:21:18.374Z,2.67
2022-08-11T12:24:14.856Z,2.28
2022-08-11T12:26:54.422Z,2.80
2022-08-11T12:29:41.202Z,2.60
2022-08-11T12:32:09.951Z,2.58
2022-08-11T12:34:35.650Z,2.67
2022-08-11T12:37:05.617Z,2.20
2022-08-11T12:40:16.374Z,2.33
2022-08-11T12:42:56.409Z,2.60
2022-08-11T12:45:31.689Z,2.70
2022-08-11T12:48:59.472Z,2.20
2022-08-11T12:51:27.437Z,2.70
2022-08-11T12:53:58.797Z,2.40
2022-08-11T12:56:40.496Z,2.25
2022-08-11T12:59:24.193Z,2.17
2022-08-11T13:02:05.575Z,2.50
2022-08-11T13:04:47.905Z,2.40
2022-08-11T13:07:18.380Z,2.60
2022-08-11T13:09:42.915Z,2.40
2022-08-11T13:12:25.575Z,2.47
2022-08-11T13:14:49.567Z,2.25
2022-08-11T13:17:43.524Z,2.38
2022-08-11T13:20:10.780Z,2.22
2022-08-11T13:22:38.490Z,2.70
2022-08-11T13:25:02.452Z,2.40
2022-08-11T13:27:26.731Z,2.53
2022-08-11T13:29:54.107Z,2.20
2022-08-11T13:32:19.288Z,2.35
2022-08-11T13:34:43.876Z,2.50
2022-08-11T13:37:07.775Z,2.13
2022-08-11T13:39:35.346Z,2.30
2022-08-11T13:42:02.964Z,2.20
2022-08-11T13:44:30.123Z,2.38
2022-08-11T13:46:56.468Z,2.17
2022-08-11T13:49:21.405Z,2.22
2022-08-11T13:51:45.705Z,2.40
2022-08-11T13:54:12.509Z,2.25
2022-08-11T13:56:40.719Z,2.40
2022-08-11T13:59:05.700Z,2.47
2022-08-11T14:02:22.365Z,2.13
2022-08-11T14:04:29.681Z,2.00
2022-08-11T14:07:00.897Z,2.30
2022-08-11T14:09:28.671Z,2.08
2022-08-11T14:12:22.332Z,1.98
2022-08-11T14:14:56.749Z,2.30
2022-08-11T14:17:47.038Z,1.95
2022-08-11T14:20:35.488Z,1.85
2022-08-11T14:22:53.325Z,2.05
2022-08-11T14:25:17.865Z,2.00
2022-08-11T14:28:30.679Z,2.00
2022-08-11T14:30:46.871Z,2.00
2022-08-11T14:33:17.117Z,1.73
2022-08-11T14:35:44.530Z,2.00
2022-08-11T14:38:13.868Z,2.03
2022-08-11T14:40:54.923Z,1.80
2022-08-11T14:44:10.440Z,1.85
2022-08-11T14:46:38.207Z,1.90
2022-08-11T14:49:02.570Z,1.65
2022-08-11T14:51:27.908Z,1.70
2022-08-11T14:54:12.064Z,1.70
2022-08-11T14:56:38.040Z,1.60
2022-08-11T14:59:03.255Z,1.80
2022-08-11T15:01:45.549Z,1.80
2022-08-11T15:04:35.326Z,1.52
2022-08-11T15:06:54.260Z,1.60
2022-08-11T15:09:18.274Z,1.95
2022-08-11T15:12:00.922Z,1.80
2022-08-11T15:14:41.433Z,1.55
2022-08-11T15:17:09.634Z,1.60
2022-08-11T15:19:36.753Z,1.80
2022-08-11T15:22:27.425Z,1.50
2022-08-11T15:24:51.800Z,1.60
2022-08-11T15:27:40.616Z,1.60
2022-08-11T15:30:41.029Z,1.77
2022-08-11T15:33:28.145Z,1.80
2022-08-11T15:36:11.832Z,1.70
2022-08-11T15:38:41.592Z,1.60
2022-08-11T15:41:25.335Z,1.50
2022-08-11T15:44:12.987Z,1.83
2022-08-11T15:46:52.512Z,1.60
2022-08-11T15:49:24.616Z,1.63
2022-08-11T15:52:12.344Z,2.50
2022-08-11T15:54:42.609Z,1.60
2022-08-11T15:57:07.427Z,1.90
2022-08-11T15:59:51.148Z,1.60
2022-08-11T16:02:39.532Z,1.42
2022-08-11T16:05:08.508Z,1.15
2022-08-11T16:07:39.791Z,1.50
2022-08-11T16:10:09.733Z,1.80
2022-08-11T16:12:41.023Z,1.50
2022-08-11T16:15:25.867Z,1.50
2022-08-11T16:17:59.504Z,1.38
2022-08-11T16:20:26.317Z,1.30
2022-08-11T16:23:00.314Z,1.58
2022-08-11T16:27:04.431Z,1.55
2022-08-11T16:28:14.583Z,1.20
2022-08-11T16:30:43.204Z,1.42
2022-08-11T16:33:49.031Z,1.80
2022-08-11T16:36:11.912Z,1.52
2022-08-11T16:38:36.902Z,1.60
2022-08-11T16:41:07.222Z,1.60
2022-08-11T16:43:54.212Z,1.50
2022-08-11T16:46:36.866Z,1.60
2022-08-11T16:49:03.988Z,1.80
2022-08-11T16:51:27.847Z,1.80
2022-08-11T16:54:04.815Z,1.45
2022-08-11T16:56:35.667Z,1.48
2022-08-11T16:59:16.908Z,1.90
2022-08-11T17:01:44.860Z,1.52
2022-08-11T17:04:36.521Z,1.60
2022-08-11T17:07:41.673Z,1.45
2022-08-11T17:10:50.970Z,1.70
2022-08-11T17:13:20.502Z,1.48
2022-08-11T17:16:06.823Z,1.60
2022-08-11T17:18:43.173Z,1.65
2022-08-11T17:21:09.568Z,1.52
2022-08-11T17:23:52.666Z,1.60
2022-08-11T17:26:21.652Z,1.52
2022-08-11T17:28:51.417Z,1.45
2022-08-11T17:31:33.424Z,1.40
2022-08-11T17:34:16.986Z,1.70
2022-08-11T17:36:45.776Z,1.52
2022-08-11T17:39:10.504Z,1.33
2022-08-11T17:41:51.703Z,1.70
2022-08-11T17:44:33.455Z,1.60
2022-08-11T17:47:14.844Z,1.90
2022-08-11T17:49:41.081Z,1.50
2022-08-11T17:52:24.636Z,1.65
2022-08-11T17:55:02.460Z,1.55
2022-08-11T17:57:49.130Z,1.83
2022-08-11T18:00:15.088Z,1.58
2022-08-11T18:02:59.726Z,1.60
2022-08-11T18:05:26.813Z,1.65
2022-08-11T18:08:12.514Z,1.50
2022-08-11T18:10:55.035Z,1.55
2022-08-11T18:13:41.520Z,1.55
2022-08-11T18:16:23.115Z,1.80
2022-08-11T18:19:04.800Z,2.15
2022-08-11T18:22:01.840Z,1.80
2022-08-11T18:24:59.129Z,1.67
2022-08-11T18:27:41.944Z,1.90
2022-08-11T18:30:25.987Z,1.50
2022-08-11T18:33:39.746Z,1.98
2022-08-11T18:36:18.303Z,1.83
2022-08-11T18:39:01.620Z,1.52
2022-08-11T18:41:46.218Z,1.65
2022-08-11T18:44:28.927Z,1.60
2022-08-11T18:47:12.542Z,1.70
2022-08-11T18:50:03.522Z,1.80
2022-08-11T18:52:49.645Z,1.70
2022-08-11T18:55:35.927Z,1.55
2022-08-11T18:58:24.245Z,1.58
2022-08-11T19:01:06.606Z,1.70
2022-08-11T19:03:49.573Z,1.88
2022-08-11T19:06:39.743Z,1.60
2022-08-11T19:09:25.557Z,1.52
2022-08-11T19:12:08.274Z,1.90
2022-08-11T19:14:54.252Z,1.90
2022-08-11T19:17:44.397Z,2.10
2022-08-11T19:20:32.446Z,1.95
2022-08-11T19:23:15.721Z,1.95
2022-08-11T19:25:58.621Z,1.95
2022-08-11T19:28:42.300Z,2.28
2022-08-11T19:31:27.737Z,2.10
2022-08-11T19:34:10.958Z,2.30
2022-08-11T19:36:54.224Z,2.22
2022-08-11T19:39:37.314Z,2.30
2022-08-11T19:42:19.575Z,2.13
2022-08-11T19:45:02.059Z,2.08
2022-08-11T19:47:45.605Z,2.10
2022-08-11T19:50:27.709Z,2.17
2022-08-11T19:53:16.908Z,2.58
2022-08-11T19:55:59.710Z,2.40
2022-08-11T19:58:40.915Z,2.80
2022-08-11T20:01:23.645Z,2.50
2022-08-11T20:04:06.536Z,2.10
2022-08-11T20:06:48.776Z,2.20
2022-08-11T20:10:04.770Z,2.28
2022-08-11T20:12:34.382Z,2.53
2022-08-11T20:15:17.264Z,2.75
2022-08-11T20:18:00.383Z,2.80
2022-08-11T20:20:46.249Z,2.67
2022-08-11T20:23:32.125Z,2.90
2022-08-11T20:26:32.787Z,2.80
2022-08-11T20:29:14.648Z,2.80
2022-08-11T20:31:56.800Z,3.08
2022-08-11T20:34:38.362Z,2.50
2022-08-11T20:37:23.396Z,3.15
2022-08-11T20:40:05.768Z,2.90
2022-08-11T20:42:48.514Z,2.58
2022-08-11T20:45:33.483Z,2.72
2022-08-11T20:48:16.372Z,2.85
2022-08-11T20:50:59.154Z,2.67
2022-08-11T20:53:44.515Z,2.80
2022-08-11T20:56:28.934Z,2.78
2022-08-11T20:59:18.213Z,2.67
2022-08-11T21:02:03.499Z,2.80
2022-08-11T21:04:54.813Z,2.50
2022-08-11T21:07:41.191Z,2.50
2022-08-11T21:10:26.526Z,2.80
2022-08-11T21:13:27.061Z,2.55
2022-08-11T21:16:16.484Z,2.45
2022-08-11T21:19:09.907Z,2.90
2022-08-11T21:21:53.878Z,2.60
2022-08-11T21:24:39.439Z,2.65
2022-08-11T21:27:34.316Z,2.17
2022-08-11T21:30:16.352Z,2.55
2022-08-11T21:33:00.491Z,2.58
2022-08-11T21:35:45.024Z,2.33
2022-08-11T21:38:26.999Z,2.72
2022-08-11T21:41:10.620Z,2.67
2022-08-11T21:43:54.513Z,2.53
2022-08-11T21:46:39.993Z,2.50
2022-08-11T21:49:22.711Z,2.75
2022-08-11T21:52:04.236Z,2.75
2022-08-11T21:54:46.476Z,2.60
2022-08-11T21:57:28.445Z,3.33
2022-08-11T22:00:14.594Z,2.47
2022-08-11T22:02:58.345Z,2.40
2022-08-11T22:05:40.175Z,2.70
2022-08-11T22:08:21.927Z,2.70
2022-08-11T22:11:03.407Z,2.80
2022-08-11T22:14:06.025Z,2.70
2022-08-11T22:16:47.301Z,2.65
2022-08-11T22:19:28.739Z,2.60
2022-08-11T22:22:10.380Z,2.53
2022-08-11T22:24:53.776Z,2.70
2022-08-11T22:27:35.011Z,2.92
2022-08-11T22:30:16.132Z,3.08
2022-08-11T22:33:00.572Z,2.95
2022-08-11T22:35:42.435Z,2.55
2022-08-11T22:38:24.281Z,2.80
2022-08-11T22:41:05.369Z,2.97
2022-08-11T22:43:47.297Z,3.00
2022-08-11T22:46:28.524Z,2.65
2022-08-11T22:49:12.731Z,3.25
2022-08-11T22:51:54.671Z,2.80
2022-08-11T22:54:37.887Z,2.67
2022-08-11T22:57:19.323Z,2.70
2022-08-11T23:00:00.959Z,2.97
2022-08-11T23:02:43.659Z,3.17
2022-08-11T23:05:28.076Z,3.05
2022-08-11T23:08:09.244Z,3.10
2022-08-11T23:10:51.395Z,2.90
2022-08-11T23:13:33.359Z,2.72
2022-08-11T23:16:15.727Z,3.10
2022-08-11T23:18:57.749Z,3.28
2022-08-11T23:21:40.813Z,3.40
2022-08-11T23:24:22.359Z,2.85
2022-08-11T23:27:04.440Z,3.17
2022-08-11T23:29:47.240Z,3.10
2022-08-11T23:32:28.428Z,3.58
2022-08-11T23:35:39.254Z,3.00
2022-08-11T23:38:16.115Z,3.15
2022-08-11T23:40:57.793Z,2.95
2022-08-11T23:43:39.907Z,3.20
2022-08-11T23:46:21.031Z,3.08
2022-08-11T23:49:06.015Z,3.38
2022-08-11T23:51:47.659Z,3.10
2022-08-11T23:54:36.611Z,3.20
2022-08-11T23:57:18.790Z,3.33
2022-08-11T23:59:59.995Z,3.10
